Time;durP1;ratioP1;P1;durP2;ratioP2;P2;SDS_P1;SDS_P2;PMS_P1;PMS_P2;Temp;Humidity;BMP_temperature;BMP_pressure;BME280_temperature;BME280_humidity;BME280_pressure;Samples;Min_cycle;Max_cycle;Signal;HPM_P1;HPM_P2
2022/06/11 00:00:23;;;;;;;30.63;5.97;;;15.30;99.90;;;;;;5044131;28;20044;-54
2022/06/11 00:02:50;;;;;;;27.63;5.30;;;15.30;99.90;;;;;;5044715;28;20552;-56
2022/06/11 00:05:17;;;;;;;22.55;5.65;;;15.30;99.90;;;;;;5041763;28;20120;-59
2022/06/11 00:07:44;;;;;;;27.63;6.22;;;15.30;99.90;;;;;;5042623;28;20120;-53
2022/06/11 00:10:10;;;;;;;26.08;5.97;;;15.30;99.90;;;;;;5041913;28;20071;-50
2022/06/11 00:12:37;;;;;;;25.70;5.28;;;15.20;99.90;;;;;;5039970;28;20054;-48
2022/06/11 00:15:04;;;;;;;25.85;5.82;;;15.20;99.90;;;;;;5041226;28;20041;-55
2022/06/11 00:17:30;;;;;;;27.00;5.45;;;15.10;99.90;;;;;;5039706;28;20041;-53
2022/06/11 00:19:58;;;;;;;24.55;6.18;;;15.10;99.90;;;;;;5052035;28;20103;-54
2022/06/11 00:22:24;;;;;;;26.15;5.95;;;15.00;99.90;;;;;;5038759;28;20076;-55
2022/06/11 00:24:51;;;;;;;24.50;6.05;;;15.10;99.90;;;;;;5045850;28;20369;-56
2022/06/11 00:27:18;;;;;;;22.63;5.07;;;15.00;99.90;;;;;;5037597;28;20060;-52
2022/06/11 00:29:45;;;;;;;33.05;5.90;;;15.00;99.90;;;;;;5036359;28;20037;-53
2022/06/11 00:32:12;;;;;;;30.60;5.35;;;15.00;99.90;;;;;;5037951;28;20029;-53
2022/06/11 00:34:39;;;;;;;28.25;5.47;;;15.00;99.90;;;;;;5043726;28;20061;-53
2022/06/11 00:37:06;;;;;;;28.65;4.60;;;15.00;99.90;;;;;;5033044;28;20057;-53
2022/06/11 00:39:33;;;;;;;25.55;5.40;;;15.00;99.90;;;;;;5032546;28;20038;-54
2022/06/11 07:52:29;;;;;;;17.65;3.60;;;16.80;99.90;;;;;;5108267;27;1291459;-54
2022/06/11 07:54:56;;;;;;;17.83;4.05;;;16.80;99.90;;;;;;5107892;28;20042;-54
2022/06/11 07:57:23;;;;;;;24.77;4.80;;;17.00;99.90;;;;;;5110664;28;20205;-54
2022/06/11 07:59:49;;;;;;;14.48;3.83;;;17.20;99.70;;;;;;5110031;28;20032;-56
2022/06/11 08:02:16;;;;;;;19.35;3.40;;;17.30;99.60;;;;;;5110623;28;20486;-54
2022/06/11 08:04:43;;;;;;;15.73;3.47;;;17.40;98.80;;;;;;5110574;28;20118;-57
2022/06/11 08:07:10;;;;;;;12.55;3.92;;;17.40;98.20;;;;;;5109793;28;20044;-53
2022/06/11 08:09:37;;;;;;;18.60;4.10;;;17.30;98.00;;;;;;5103747;28;20444;-55
2022/06/11 08:12:03;;;;;;;15.35;3.65;;;17.30;98.30;;;;;;5103967;28;20089;-53
2022/06/11 08:14:30;;;;;;;18.02;3.80;;;17.40;98.40;;;;;;5109429;28;20092;-52
2022/06/11 08:16:57;;;;;;;12.75;3.17;;;17.50;98.80;;;;;;5110589;28;20060;-55
2022/06/11 08:19:23;;;;;;;16.52;3.50;;;17.60;97.90;;;;;;5110406;28;20052;-52
2022/06/11 08:21:50;;;;;;;14.13;3.17;;;17.70;97.80;;;;;;5109486;28;20093;-52
2022/06/11 08:24:17;;;;;;;13.52;3.70;;;17.70;97.80;;;;;;5110340;28;20094;-51
2022/06/11 08:26:45;;;;;;;10.63;2.42;;;17.70;96.90;;;;;;5110218;28;20097;-58
2022/06/11 08:29:12;;;;;;;16.02;3.67;;;17.80;97.10;;;;;;5109756;28;20044;-55
2022/06/11 08:31:39;;;;;;;16.08;3.53;;;17.80;96.90;;;;;;5110264;28;20441;-53
2022/06/11 08:34:05;;;;;;;13.20;2.65;;;17.80;96.50;;;;;;5109152;28;20040;-55
2022/06/11 08:36:32;;;;;;;9.20;2.90;;;17.90;96.40;;;;;;5109727;28;20040;-49
2022/06/11 08:38:59;;;;;;;13.27;3.17;;;18.00;96.20;;;;;;5110088;28;20394;-55
2022/06/11 08:41:26;;;;;;;14.30;2.80;;;18.10;95.90;;;;;;5110001;28;20478;-53
2022/06/11 08:43:52;;;;;;;14.82;3.60;;;18.20;96.10;;;;;;5109252;28;20059;-49
2022/06/11 08:46:19;;;;;;;10.80;2.92;;;18.30;95.80;;;;;;5110007;28;20040;-55
2022/06/11 08:48:46;;;;;;;16.85;3.15;;;18.50;95.60;;;;;;5109817;28;20071;-53
2022/06/11 08:51:13;;;;;;;16.02;3.38;;;18.60;95.50;;;;;;5108682;28;20052;-55
2022/06/11 08:53:40;;;;;;;13.40;2.97;;;18.70;95.20;;;;;;5109690;28;20032;-54
2022/06/11 08:56:07;;;;;;;13.35;3.35;;;18.80;94.90;;;;;;5103893;28;20059;-51
2022/06/11 08:58:33;;;;;;;13.82;3.60;;;19.00;95.30;;;;;;5107683;28;20044;-54
2022/06/11 09:01:00;;;;;;;17.98;3.20;;;19.10;94.80;;;;;;5108881;28;20085;-51
2022/06/11 09:32:06;;;;;;;13.40;3.00;;;18.60;93.30;;;;;;5082167;27;20817;-50
2022/06/11 09:34:33;;;;;;;13.48;3.00;;;18.60;94.20;;;;;;5074385;28;20522;-52
2022/06/11 09:37:00;;;;;;;13.43;3.13;;;18.80;94.30;;;;;;5066735;28;20041;-54
2022/06/11 09:39:27;;;;;;;14.25;2.70;;;18.90;93.20;;;;;;5065458;28;20511;-54
2022/06/11 09:41:53;;;;;;;11.25;2.88;;;19.00;93.50;;;;;;5067364;28;20526;-51
2022/06/11 09:44:20;;;;;;;13.10;2.90;;;19.10;93.20;;;;;;5068063;28;20048;-54
2022/06/11 09:46:47;;;;;;;12.05;3.13;;;19.20;92.80;;;;;;5067692;28;20475;-52
2022/06/11 09:49:14;;;;;;;13.07;2.90;;;19.40;92.70;;;;;;5068257;28;20472;-55
2022/06/11 09:51:40;;;;;;;11.02;2.67;;;19.30;91.80;;;;;;5064164;28;20064;-50
2022/06/11 09:54:07;;;;;;;10.90;2.70;;;19.40;92.10;;;;;;5068747;28;20127;-51
2022/06/11 09:56:34;;;;;;;10.90;2.42;;;19.50;92.10;;;;;;5064948;28;20469;-55
2022/06/11 09:59:01;;;;;;;10.95;3.08;;;19.80;91.50;;;;;;5068002;28;20048;-58
2022/06/11 19:49:43;;;;;;;13.95;4.30;;;19.30;89.60;;;;;;5090880;27;20776;-52
2022/06/11 19:52:10;;;;;;;15.85;3.95;;;19.10;89.50;;;;;;5057651;28;20111;-53
2022/06/11 19:54:36;;;;;;;12.45;3.63;;;19.00;89.80;;;;;;5068723;28;20040;-55
2022/06/11 19:57:03;;;;;;;15.23;3.97;;;19.00;89.90;;;;;;5069964;28;20103;-57
2022/06/11 19:59:30;;;;;;;15.48;3.90;;;19.10;90.00;;;;;;5070009;28;20484;-57
2022/06/11 20:01:57;;;;;;;14.70;3.85;;;19.00;89.90;;;;;;5069870;28;20040;-49
2022/06/11 20:04:23;;;;;;;16.83;3.78;;;19.00;90.00;;;;;;5050278;28;20458;-52
2022/06/11 20:06:54;;;;;;;15.98;4.15;;;19.00;90.10;;;;;;5049994;28;20048;-52
2022/06/11 20:09:21;;;;;;;13.30;3.95;;;19.00;90.20;;;;;;5050015;28;20544;-52
2022/06/11 20:11:47;;;;;;;12.80;3.60;;;19.00;90.20;;;;;;5049006;28;20095;-54
2022/06/11 20:14:14;;;;;;;11.82;3.63;;;19.00;90.30;;;;;;5050201;28;20099;-53
2022/06/11 20:16:43;;;;;;;14.80;4.18;;;19.00;90.30;;;;;;5063311;28;20048;-53
2022/06/11 20:19:11;;;;;;;11.52;3.78;;;19.00;90.30;;;;;;5051841;28;20435;-54
2022/06/11 20:21:38;;;;;;;12.93;4.30;;;19.00;90.40;;;;;;5069662;28;20051;-53
2022/06/11 20:24:04;;;;;;;15.73;4.10;;;19.00;90.40;;;;;;5049934;28;20060;-52
2022/06/11 20:26:31;;;;;;;12.65;3.97;;;18.90;90.40;;;;;;5049957;28;20049;-56
2022/06/11 20:28:58;;;;;;;16.05;4.72;;;18.90;90.50;;;;;;5049721;28;20041;-57
2022/06/11 20:31:25;;;;;;;14.05;3.67;;;18.80;90.50;;;;;;5049726;28;20495;-59
2022/06/11 20:33:52;;;;;;;14.48;4.28;;;18.80;90.60;;;;;;5049779;28;20072;-53
2022/06/11 20:36:18;;;;;;;13.57;3.50;;;18.70;90.70;;;;;;5049803;28;20045;-54
2022/06/11 20:38:49;;;;;;;15.23;4.22;;;18.70;90.90;;;;;;5049679;28;20072;-54
2022/06/11 20:41:16;;;;;;;15.02;3.70;;;18.70;91.00;;;;;;5049521;28;20083;-54
2022/06/11 20:43:44;;;;;;;13.35;3.70;;;18.60;90.90;;;;;;5049339;28;20041;-52
2022/06/11 20:46:11;;;;;;;15.48;3.75;;;18.60;91.10;;;;;;5049594;28;20037;-55
2022/06/11 20:48:38;;;;;;;15.73;4.00;;;18.60;91.10;;;;;;5049385;28;20049;-56
2022/06/11 20:51:06;;;;;;;19.38;3.92;;;18.60;91.20;;;;;;5065912;28;20040;-55
2022/06/11 20:53:33;;;;;;;14.75;4.20;;;18.60;91.20;;;;;;5068899;28;20122;-55
2022/06/11 20:55:59;;;;;;;17.52;4.22;;;18.60;91.30;;;;;;5056835;28;20512;-53
2022/06/11 20:58:26;;;;;;;17.55;4.15;;;18.60;91.40;;;;;;5049550;28;20096;-54
2022/06/11 21:00:53;;;;;;;15.43;5.13;;;18.60;91.50;;;;;;5044377;28;20041;-52
2022/06/11 21:03:19;;;;;;;17.80;6.85;;;18.50;91.60;;;;;;5036237;28;20115;-53
2022/06/11 21:05:46;;;;;;;20.63;6.65;;;18.50;91.60;;;;;;5036182;28;20091;-57
2022/06/11 21:10:58;;;;;;;16.77;5.28;;;18.50;91.80;;;;;;5054996;28;20045;-50
2022/06/11 21:13:25;;;;;;;15.85;5.15;;;18.40;92.00;;;;;;5054966;28;20056;-54
2022/06/11 21:15:54;;;;;;;15.30;4.63;;;18.30;92.10;;;;;;5042200;28;20049;-48
2022/06/11 21:18:21;;;;;;;17.70;5.60;;;18.30;92.10;;;;;;5035869;28;20400;-56
2022/06/11 21:20:50;;;;;;;16.25;4.30;;;18.20;92.30;;;;;;5036218;28;20033;-54
2022/06/11 21:23:16;;;;;;;19.50;4.75;;;18.10;92.50;;;;;;5054613;28;20159;-51
2022/06/11 21:25:43;;;;;;;16.75;5.28;;;18.00;92.60;;;;;;5054920;28;20451;-55
2022/06/11 21:28:12;;;;;;;13.80;4.25;;;18.00;92.70;;;;;;5054908;28;20064;-51
2022/06/11 21:30:40;;;;;;;11.88;3.78;;;17.90;92.90;;;;;;5035807;28;20046;-50
2022/06/11 21:33:07;;;;;;;15.15;4.13;;;17.90;93.00;;;;;;5035840;28;20053;-53
2022/06/11 21:35:34;;;;;;;17.75;4.30;;;17.80;93.00;;;;;;5035935;28;20050;-51
2022/06/11 21:38:01;;;;;;;14.18;4.63;;;17.70;93.10;;;;;;5035539;28;20045;-55
2022/06/11 21:40:27;;;;;;;15.20;4.10;;;17.70;93.20;;;;;;5035542;28;20393;-52
2022/06/11 21:42:54;;;;;;;15.32;4.20;;;17.60;92.90;;;;;;5035227;28;20472;-51
2022/06/11 21:45:22;;;;;;;14.85;3.67;;;17.60;92.00;;;;;;5035374;28;20095;-52
2022/06/11 21:47:48;;;;;;;13.13;3.63;;;17.50;92.10;;;;;;5035285;28;20107;-55
2022/06/11 21:50:15;;;;;;;14.30;4.65;;;17.50;92.00;;;;;;5038708;28;20036;-55
2022/06/11 21:52:42;;;;;;;14.98;4.47;;;17.50;92.20;;;;;;5054584;28;20041;-52
2022/06/11 21:55:08;;;;;;;9.82;3.80;;;17.50;92.20;;;;;;5054473;28;20435;-51
2022/06/11 21:57:35;;;;;;;10.90;3.40;;;17.50;91.20;;;;;;5054285;28;20607;-56
2022/06/11 22:00:03;;;;;;;8.90;2.92;;;17.50;87.80;;;;;;5054317;28;20507;-53
2022/06/11 22:02:37;;;;;;;;;;;17.50;86.20;;;;;;5054221;28;20435;-50
2022/06/11 22:05:04;;;;;;;12.00;2.67;;;17.40;84.90;;;;;;5034941;28;19921;-54
2022/06/11 22:07:31;;;;;;;7.32;2.13;;;17.40;82.70;;;;;;5054124;28;20041;-54
2022/06/11 22:09:58;;;;;;;5.43;1.95;;;17.40;83.80;;;;;;5052654;28;20060;-51
2022/06/11 22:12:25;;;;;;;9.60;2.92;;;17.40;83.50;;;;;;5047344;28;20083;-54
2022/06/11 22:14:52;;;;;;;10.38;2.95;;;17.30;84.50;;;;;;5052867;28;20419;-56
2022/06/11 22:17:19;;;;;;;11.00;3.00;;;17.30;83.70;;;;;;5053159;28;20045;-52
2022/06/11 22:19:46;;;;;;;10.85;2.70;;;17.20;83.60;;;;;;5053603;28;20036;-55
2022/06/11 22:22:13;;;;;;;7.30;2.53;;;17.20;83.60;;;;;;5053212;28;20041;-52
